createdAt,value
2022-12-23T00:01:25.048Z,6.78
2022-12-23T00:03:58.502Z,6.00
2022-12-23T00:06:27.825Z,5.65
2022-12-23T00:08:58.618Z,4.97
2022-12-23T00:11:28.429Z,6.97
2022-12-23T00:14:20.406Z,4.47
2022-12-23T00:16:50.650Z,4.82
2022-12-23T00:19:20.352Z,4.88
2022-12-23T00:21:49.360Z,4.65
2022-12-23T00:24:18.134Z,4.20
2022-12-23T00:26:46.473Z,3.97
2022-12-23T00:29:14.446Z,4.10
2022-12-23T00:31:43.195Z,4.38
2022-12-23T00:34:12.325Z,4.65
2022-12-23T00:36:41.954Z,4.82
2022-12-23T00:39:30.653Z,3.60
2022-12-23T00:42:16.548Z,4.35
2022-12-23T00:44:44.507Z,4.95
2022-12-23T00:47:32.730Z,6.70
2022-12-23T00:49:59.887Z,4.00
2022-12-23T00:52:29.411Z,5.20
2022-12-23T00:54:57.327Z,7.18
2022-12-23T00:57:25.696Z,5.90
2022-12-23T00:59:53.541Z,4.57
2022-12-23T01:02:39.542Z,6.07
2022-12-23T01:08:19.641Z,4.30
2022-12-23T01:10:48.017Z,4.93
2022-12-23T01:13:15.955Z,5.97
2022-12-23T01:15:44.446Z,5.53
2022-12-23T01:18:12.684Z,6.18
2022-12-23T01:20:41.422Z,6.55
2022-12-23T01:23:09.312Z,5.70
2022-12-23T01:25:39.062Z,5.60
2022-12-23T01:28:06.959Z,4.97
2022-12-23T01:30:35.312Z,4.85
2022-12-23T01:33:03.517Z,4.75
2022-12-23T01:35:31.928Z,5.65
2022-12-23T01:37:59.808Z,6.78
2022-12-23T01:40:28.182Z,6.05
2022-12-23T01:42:56.445Z,5.78
2022-12-23T01:45:30.386Z,4.25
2022-12-23T01:48:01.883Z,6.60
2022-12-23T01:50:33.730Z,4.43
2022-12-23T01:53:08.773Z,6.15
2022-12-23T01:55:42.951Z,4.22
2022-12-23T01:58:15.750Z,5.53
2022-12-23T02:01:02.192Z,4.30
2022-12-23T02:03:45.433Z,5.78
2022-12-23T02:06:38.442Z,4.97
2022-12-23T02:09:19.041Z,4.80
2022-12-23T02:12:12.995Z,5.05
2022-12-23T02:15:16.489Z,3.55
2022-12-23T02:17:56.099Z,4.65
2022-12-23T02:21:00.225Z,3.33
2022-12-23T02:24:06.192Z,3.20
2022-12-23T02:27:20.852Z,4.72
2022-12-23T02:30:14.018Z,4.15
2022-12-23T02:32:59.282Z,2.88
2022-12-23T02:35:34.542Z,3.05
2022-12-23T02:38:10.349Z,2.85
2022-12-23T02:40:45.272Z,2.00
2022-12-23T02:43:18.394Z,2.88
2022-12-23T02:45:54.545Z,6.38
2022-12-23T02:48:31.772Z,3.20
2022-12-23T02:51:02.606Z,2.72
2022-12-23T02:53:34.866Z,3.25
2022-12-23T02:56:06.868Z,2.78
2022-12-23T02:58:38.425Z,2.78
2022-12-23T03:01:09.181Z,2.67
2022-12-23T03:03:39.773Z,3.38
2022-12-23T03:06:18.604Z,3.60
2022-12-23T03:08:47.125Z,4.55
2022-12-23T03:11:17.206Z,3.20
2022-12-23T03:14:07.076Z,4.75
2022-12-23T03:16:49.421Z,2.42
2022-12-23T03:19:27.093Z,4.50
2022-12-23T03:22:07.236Z,4.25
2022-12-23T03:24:45.774Z,3.65
2022-12-23T03:27:18.413Z,2.83
2022-12-23T03:32:24.227Z,3.63
2022-12-23T03:34:56.836Z,3.00
2022-12-23T03:37:28.107Z,1.98
2022-12-23T03:40:01.843Z,2.33
2022-12-23T03:42:34.777Z,2.72
2022-12-23T03:45:37.649Z,2.55
2022-12-23T03:48:03.706Z,1.88
2022-12-23T03:50:33.840Z,2.30
2022-12-23T03:53:07.743Z,1.90
2022-12-23T03:55:41.766Z,2.80
2022-12-23T03:58:17.482Z,1.88
2022-12-23T04:00:51.679Z,2.03
2022-12-23T04:03:25.383Z,2.03
2022-12-23T04:06:00.889Z,2.72
2022-12-23T04:08:33.731Z,2.25
2022-12-23T04:11:02.876Z,2.92
2022-12-23T04:13:31.863Z,2.15
2022-12-23T04:16:00.884Z,2.00
2022-12-23T04:18:29.574Z,2.05
2022-12-23T04:20:59.982Z,2.13
2022-12-23T04:23:28.112Z,1.90
2022-12-23T04:25:56.035Z,2.10
2022-12-23T04:28:24.544Z,3.40
2022-12-23T04:30:52.441Z,2.65
2022-12-23T04:33:20.601Z,3.42
2022-12-23T04:35:48.641Z,3.10
2022-12-23T04:38:18.190Z,2.53
2022-12-23T04:40:46.965Z,2.45
2022-12-23T04:43:15.720Z,4.30
2022-12-23T04:45:43.634Z,3.63
2022-12-23T04:48:11.831Z,3.40
2022-12-23T04:50:40.482Z,2.83
2022-12-23T04:53:08.639Z,4.65
2022-12-23T04:55:37.921Z,3.30
2022-12-23T04:58:06.344Z,2.60
2022-12-23T05:00:39.452Z,3.20
2022-12-23T05:03:08.355Z,3.90
2022-12-23T05:05:36.439Z,2.30
2022-12-23T05:08:06.303Z,3.65
2022-12-23T05:10:34.521Z,3.67
2022-12-23T05:13:04.060Z,2.92
2022-12-23T05:15:33.035Z,2.75
2022-12-23T05:18:01.562Z,3.60
2022-12-23T05:20:29.557Z,3.58
2022-12-23T05:22:57.722Z,3.65
2022-12-23T05:25:25.895Z,3.35
2022-12-23T05:27:54.093Z,3.80
2022-12-23T05:30:23.306Z,3.65
2022-12-23T05:32:54.238Z,3.45
2022-12-23T05:35:22.322Z,2.83
2022-12-23T05:37:50.533Z,3.03
2022-12-23T05:40:24.135Z,3.10
2022-12-23T05:43:00.291Z,3.38
2022-12-23T05:45:29.875Z,5.28
2022-12-23T05:47:58.085Z,3.30
2022-12-23T05:50:25.962Z,3.50
2022-12-23T05:52:55.845Z,3.22
2022-12-23T05:55:24.217Z,3.30
2022-12-23T05:57:52.536Z,4.05
2022-12-23T06:00:21.803Z,4.43
2022-12-23T06:02:53.927Z,4.72
2022-12-23T06:05:22.979Z,5.47
2022-12-23T06:07:51.157Z,6.60
2022-12-23T06:10:19.462Z,8.77
2022-12-23T06:12:48.008Z,7.53
2022-12-23T06:15:16.085Z,7.90
2022-12-23T06:17:44.465Z,6.00
2022-12-23T06:20:20.348Z,6.88
2022-12-23T06:22:49.095Z,5.38
2022-12-23T06:25:17.423Z,6.43
2022-12-23T06:27:45.629Z,5.82
2022-12-23T06:30:14.017Z,6.82
2022-12-23T06:32:42.552Z,5.88
2022-12-23T06:35:10.883Z,7.70
2022-12-23T06:37:40.474Z,5.50
2022-12-23T06:40:09.727Z,6.30
2022-12-23T06:42:37.894Z,6.15
2022-12-23T06:45:06.548Z,5.55
2022-12-23T06:47:35.048Z,5.63
2022-12-23T06:50:02.957Z,5.93
2022-12-23T06:52:31.198Z,5.80
2022-12-23T06:55:00.787Z,5.15
2022-12-23T06:57:28.932Z,6.13
2022-12-23T06:59:56.870Z,8.10
2022-12-23T07:02:25.419Z,7.45
2022-12-23T07:04:53.411Z,7.43
2022-12-23T07:07:21.646Z,8.85
2022-12-23T07:09:49.850Z,7.47
2022-12-23T07:12:19.471Z,8.30
2022-12-23T07:14:47.397Z,9.25
2022-12-23T07:17:15.870Z,5.10
2022-12-23T07:19:43.901Z,5.40
2022-12-23T07:22:12.064Z,5.78
2022-12-23T07:24:40.274Z,7.10
2022-12-23T07:27:08.566Z,6.40
2022-12-23T07:29:37.862Z,5.82
2022-12-23T07:32:06.488Z,5.82
2022-12-23T07:34:34.538Z,4.78
2022-12-23T07:37:02.752Z,5.00
2022-12-23T07:39:30.914Z,3.63
2022-12-23T07:42:24.930Z,4.63
2022-12-23T07:44:48.464Z,4.65
2022-12-23T07:47:16.871Z,5.70
2022-12-23T07:49:44.757Z,6.20
2022-12-23T07:52:13.015Z,7.82
2022-12-23T07:54:40.893Z,7.72
2022-12-23T07:57:09.066Z,10.65
2022-12-23T07:59:37.285Z,10.95
2022-12-23T08:02:07.042Z,15.70
2022-12-23T08:04:37.403Z,9.80
2022-12-23T08:07:08.059Z,7.95
2022-12-23T08:09:35.980Z,9.48
2022-12-23T08:12:05.053Z,11.45
2022-12-23T08:14:33.221Z,11.50
2022-12-23T08:17:01.731Z,9.80
2022-12-23T08:19:31.118Z,8.73
2022-12-23T08:21:59.441Z,8.43
2022-12-23T08:24:27.334Z,8.20
2022-12-23T08:26:55.655Z,7.35
2022-12-23T08:29:23.751Z,7.47
2022-12-23T08:31:51.919Z,7.70
2022-12-23T08:34:20.289Z,7.22
2022-12-23T08:36:50.036Z,5.75
2022-12-23T08:39:18.272Z,6.95
2022-12-23T08:41:48.902Z,9.95
2022-12-23T08:44:17.929Z,10.45
2022-12-23T08:46:46.223Z,10.63
2022-12-23T08:49:14.295Z,10.95
2022-12-23T08:51:42.660Z,9.35
2022-12-23T08:54:12.251Z,12.38
2022-12-23T08:56:42.649Z,7.90
2022-12-23T08:59:18.699Z,10.07
2022-12-23T09:01:49.225Z,7.47
2022-12-23T09:04:17.471Z,9.23
2022-12-23T09:06:46.420Z,10.35
2022-12-23T09:09:16.555Z,8.85
2022-12-23T09:11:45.055Z,12.98
2022-12-23T09:14:13.874Z,9.20
2022-12-23T09:16:42.182Z,9.30
2022-12-23T09:19:10.350Z,7.55
2022-12-23T09:21:38.734Z,8.88
2022-12-23T09:24:07.293Z,6.80
2022-12-23T09:26:37.078Z,7.07
2022-12-23T09:29:05.015Z,6.68
2022-12-23T09:31:37.263Z,5.90
2022-12-23T09:34:06.261Z,6.85
2022-12-23T09:36:34.731Z,7.38
2022-12-23T09:39:02.673Z,4.60
2022-12-23T09:41:48.387Z,6.60
2022-12-23T09:44:31.914Z,5.63
2022-12-23T09:47:04.059Z,6.78
2022-12-23T09:49:31.966Z,4.43
2022-12-23T09:52:04.783Z,5.28
2022-12-23T09:54:42.118Z,4.60
2022-12-23T09:57:22.067Z,6.15
2022-12-23T10:00:02.442Z,13.65
2022-12-23T10:02:42.776Z,21.52
2022-12-23T10:05:22.529Z,8.82
2022-12-23T10:07:56.807Z,7.55
2022-12-23T10:10:33.404Z,8.00
2022-12-23T10:13:05.980Z,8.52
2022-12-23T10:15:38.746Z,10.73
2022-12-23T10:18:16.353Z,9.60
2022-12-23T10:20:50.050Z,8.75
2022-12-23T10:23:23.021Z,11.55
2022-12-23T10:25:52.702Z,8.15
2022-12-23T10:28:22.233Z,9.15
2022-12-23T10:31:39.141Z,8.50
2022-12-23T10:34:00.122Z,7.80
2022-12-23T10:36:38.672Z,8.00
2022-12-23T10:39:19.336Z,10.95
2022-12-23T10:41:56.502Z,9.45
2022-12-23T10:44:50.925Z,6.88
2022-12-23T10:47:30.375Z,8.40
2022-12-23T10:50:09.481Z,8.30
2022-12-23T10:52:40.638Z,9.57
2022-12-23T10:57:44.319Z,9.20
2022-12-23T11:00:21.793Z,8.98
2022-12-23T11:03:08.441Z,11.68
2022-12-23T11:05:37.538Z,8.35
2022-12-23T11:08:06.004Z,10.57
2022-12-23T11:10:34.643Z,7.97
2022-12-23T11:13:02.989Z,6.03
2022-12-23T11:15:35.118Z,7.50
2022-12-23T11:18:07.120Z,7.72
2022-12-23T11:20:37.011Z,9.30
2022-12-23T11:23:07.643Z,12.93
2022-12-23T11:25:38.414Z,6.97
2022-12-23T11:28:13.657Z,7.50
2022-12-23T11:30:57.025Z,8.23
2022-12-23T11:33:29.124Z,9.52
2022-12-23T11:36:02.702Z,6.95
2022-12-23T11:38:31.256Z,5.85
2022-12-23T11:40:59.868Z,9.15
2022-12-23T11:43:28.898Z,5.85
2022-12-23T11:46:25.249Z,7.30
2022-12-23T11:49:17.883Z,5.82
2022-12-23T11:51:48.497Z,4.63
2022-12-23T11:54:19.166Z,5.50
2022-12-23T11:56:52.054Z,5.13
2022-12-23T11:59:31.938Z,6.85
2022-12-23T12:02:04.734Z,5.10
2022-12-23T12:04:35.882Z,6.53
2022-12-23T12:07:05.940Z,6.68
2022-12-23T12:09:35.445Z,8.52
2022-12-23T12:12:09.560Z,6.57
2022-12-23T12:14:44.219Z,5.47
2022-12-23T12:17:20.647Z,7.50
2022-12-23T12:19:59.109Z,7.90
2022-12-23T12:22:33.402Z,5.65
2022-12-23T12:25:13.330Z,5.32
2022-12-23T12:27:44.843Z,6.45
2022-12-23T12:30:18.332Z,6.10
2022-12-23T12:33:01.026Z,5.63
2022-12-23T12:35:38.420Z,5.93
2022-12-23T12:38:14.649Z,7.05
2022-12-23T12:40:46.504Z,9.30
2022-12-23T12:43:24.636Z,9.60
2022-12-23T12:46:05.616Z,7.88
2022-12-23T12:48:43.366Z,10.35
2022-12-23T12:51:20.506Z,7.68
2022-12-23T12:54:05.052Z,7.63
2022-12-23T12:56:41.234Z,8.38
2022-12-23T12:59:17.821Z,10.07
2022-12-23T13:02:00.295Z,7.22
2022-12-23T13:05:04.173Z,6.68
2022-12-23T13:07:43.562Z,7.03
2022-12-23T13:10:21.494Z,8.15
2022-12-23T13:13:00.505Z,9.80
2022-12-23T13:15:33.737Z,7.70
2022-12-23T13:18:22.914Z,9.73
2022-12-23T13:21:00.757Z,5.50
2022-12-23T13:23:44.830Z,7.72
2022-12-23T13:26:25.057Z,11.27
2022-12-23T13:29:02.516Z,9.48
2022-12-23T13:31:41.953Z,9.02
2022-12-23T13:34:21.910Z,9.50
2022-12-23T13:36:59.126Z,8.43
2022-12-23T13:39:46.623Z,9.57
2022-12-23T13:42:24.356Z,8.43
2022-12-23T13:44:53.025Z,8.02
2022-12-23T13:47:30.097Z,5.15
2022-12-23T13:50:07.850Z,7.00
2022-12-23T13:52:51.640Z,6.97
2022-12-23T13:55:39.800Z,8.32
2022-12-23T13:58:14.404Z,7.30
2022-12-23T14:00:43.544Z,5.10
2022-12-23T14:03:21.082Z,6.28
2022-12-23T14:05:50.649Z,8.02
2022-12-23T14:08:40.266Z,6.88
2022-12-23T14:11:16.594Z,8.80
2022-12-23T14:13:52.727Z,15.82
2022-12-23T14:16:36.718Z,5.88
2022-12-23T14:19:25.479Z,5.47
2022-12-23T14:22:05.286Z,6.05
2022-12-23T14:25:11.026Z,8.40
2022-12-23T14:27:56.655Z,8.70
2022-12-23T14:30:34.186Z,7.47
2022-12-23T14:33:06.145Z,8.38
2022-12-23T14:35:56.249Z,7.05
2022-12-23T14:38:27.443Z,8.25
2022-12-23T14:41:23.640Z,7.63
2022-12-23T14:43:59.751Z,16.55
2022-12-23T14:46:58.646Z,10.85
2022-12-23T14:49:47.981Z,7.43
2022-12-23T14:52:49.030Z,10.10
2022-12-23T14:55:46.284Z,18.48
2022-12-23T14:58:40.269Z,13.52
2022-12-23T15:01:12.802Z,10.73
2022-12-23T15:03:47.182Z,22.85
2022-12-23T15:06:24.635Z,18.85
2022-12-23T15:08:54.707Z,11.15
2022-12-23T15:11:28.235Z,9.68
2022-12-23T15:14:00.693Z,11.15
2022-12-23T15:16:34.800Z,9.70
2022-12-23T15:19:13.966Z,9.10
2022-12-23T15:21:43.961Z,9.73
2022-12-23T15:24:17.217Z,9.68
2022-12-23T15:27:09.740Z,11.43
2022-12-23T15:29:44.636Z,11.50
2022-12-23T15:32:12.939Z,13.77
2022-12-23T15:34:42.412Z,14.73
2022-12-23T15:37:12.403Z,13.25
2022-12-23T15:39:43.708Z,17.58
2022-12-23T15:42:23.008Z,14.65
2022-12-23T15:44:53.646Z,19.52
2022-12-23T15:47:29.048Z,14.63
2022-12-23T15:49:59.318Z,16.38
2022-12-23T15:52:28.068Z,15.40
2022-12-23T15:55:01.727Z,45.40
2022-12-23T15:57:31.259Z,58.35
2022-12-23T16:00:01.885Z,61.22
2022-12-23T16:02:59.738Z,49.70
2022-12-23T16:05:27.891Z,35.13
2022-12-23T16:08:11.634Z,20.33
2022-12-23T16:10:40.729Z,11.60
2022-12-23T16:13:19.004Z,14.63
2022-12-23T16:15:49.237Z,15.88
2022-12-23T16:18:22.849Z,18.20
2022-12-23T16:20:54.538Z,22.60
2022-12-23T16:23:23.111Z,15.45
2022-12-23T16:25:54.236Z,23.75
2022-12-23T16:28:27.629Z,22.15
2022-12-23T16:30:59.189Z,28.95
2022-12-23T16:33:36.978Z,30.17
2022-12-23T16:39:33.507Z,33.78
2022-12-23T16:42:01.870Z,33.85
2022-12-23T16:44:29.863Z,34.53
2022-12-23T16:47:05.168Z,28.88
2022-12-23T16:49:34.476Z,31.38
2022-12-23T16:52:05.832Z,25.20
2022-12-23T16:54:33.995Z,20.92
2022-12-23T16:57:02.308Z,25.52
2022-12-23T16:59:30.870Z,22.95
2022-12-23T17:02:03.734Z,23.15
2022-12-23T17:07:20.617Z,24.48
2022-12-23T17:09:48.875Z,28.63
2022-12-23T17:12:16.825Z,30.92
2022-12-23T17:14:45.065Z,30.15
2022-12-23T17:17:16.564Z,30.42
2022-12-23T17:19:44.730Z,33.53
2022-12-23T17:22:14.124Z,34.90
2022-12-23T17:24:42.433Z,32.15
2022-12-23T17:27:14.202Z,68.93
2022-12-23T17:29:42.426Z,75.80
2022-12-23T17:32:12.868Z,80.22
2022-12-23T17:34:42.543Z,57.03
2022-12-23T17:37:14.871Z,32.70
2022-12-23T17:39:45.118Z,27.58
2022-12-23T17:42:21.745Z,29.27
2022-12-23T17:44:53.880Z,26.73
2022-12-23T17:47:23.411Z,31.08
2022-12-23T17:49:53.408Z,28.75
2022-12-23T17:52:24.243Z,28.73
2022-12-23T17:54:52.740Z,84.32
2022-12-23T17:57:22.630Z,31.95
2022-12-23T17:59:52.579Z,30.77
2022-12-23T18:02:25.826Z,27.42
2022-12-23T18:04:55.803Z,28.25
2022-12-23T18:07:23.785Z,24.63
2022-12-23T18:09:52.183Z,27.95
2022-12-23T18:12:25.519Z,29.48
2022-12-23T18:14:53.804Z,31.42
2022-12-23T18:17:21.996Z,29.25
2022-12-23T18:19:50.194Z,21.35
2022-12-23T18:22:21.608Z,20.23
2022-12-23T18:24:57.011Z,19.45
2022-12-23T18:27:26.932Z,19.95
2022-12-23T18:29:57.323Z,24.67
2022-12-23T18:32:28.177Z,28.27
2022-12-23T18:34:56.918Z,16.38
2022-12-23T18:37:26.596Z,18.40
2022-12-23T18:39:54.773Z,18.05
2022-12-23T18:42:22.796Z,20.20
2022-12-23T18:44:51.015Z,20.45
2022-12-23T18:47:18.999Z,20.05
2022-12-23T18:49:47.242Z,18.38
2022-12-23T18:52:15.178Z,17.63
2022-12-23T18:54:44.683Z,17.98
2022-12-23T18:57:12.730Z,17.25
2022-12-23T18:59:41.050Z,18.38
2022-12-23T19:02:14.100Z,20.65
2022-12-23T19:04:42.895Z,18.83
2022-12-23T19:07:11.120Z,17.50
2022-12-23T19:09:39.345Z,18.40
2022-12-23T19:12:08.942Z,14.57
2022-12-23T19:14:39.587Z,79.22
2022-12-23T19:17:08.141Z,26.33
2022-12-23T19:19:36.421Z,17.75
2022-12-23T19:22:04.364Z,16.27
2022-12-23T19:24:32.710Z,15.35
2022-12-23T19:27:00.740Z,16.42
2022-12-23T19:29:30.277Z,17.55
2022-12-23T19:31:58.304Z,19.55
2022-12-23T19:34:26.637Z,18.70
2022-12-23T19:36:54.565Z,16.60
2022-12-23T19:39:24.008Z,19.65
2022-12-23T19:41:52.014Z,16.13
2022-12-23T19:44:20.229Z,17.90
2022-12-23T19:46:49.894Z,20.40
2022-12-23T19:49:20.402Z,15.85
2022-12-23T19:51:49.604Z,17.80
2022-12-23T19:54:18.289Z,16.00
2022-12-23T19:56:46.701Z,14.07
2022-12-23T19:59:14.835Z,16.08
2022-12-23T20:01:42.822Z,15.23
2022-12-23T20:04:13.489Z,13.43
2022-12-23T20:06:42.821Z,14.70
2022-12-23T20:09:14.037Z,10.88
2022-12-23T20:11:44.180Z,10.27
2022-12-23T20:14:12.841Z,13.35
2022-12-23T20:16:41.432Z,8.60
2022-12-23T20:19:09.976Z,6.70
2022-12-23T20:21:39.260Z,7.97
2022-12-23T20:24:08.394Z,6.50
2022-12-23T20:26:36.367Z,5.80
2022-12-23T20:29:04.575Z,7.05
2022-12-23T20:31:34.153Z,7.30
2022-12-23T20:34:03.112Z,6.65
2022-12-23T20:36:33.570Z,5.85
2022-12-23T20:39:03.453Z,5.38
2022-12-23T20:41:32.881Z,6.00
2022-12-23T20:46:49.443Z,6.15
2022-12-23T20:49:17.668Z,5.53
2022-12-23T20:51:45.563Z,7.00
2022-12-23T20:54:15.662Z,7.10
2022-12-23T20:56:43.585Z,8.65
2022-12-23T20:59:11.768Z,6.47
2022-12-23T21:01:41.493Z,7.18
2022-12-23T21:04:12.728Z,7.95
2022-12-23T21:06:41.257Z,7.05
2022-12-23T21:09:12.203Z,7.65
2022-12-23T21:11:43.794Z,10.10
2022-12-23T21:14:12.910Z,9.38
2022-12-23T21:16:41.352Z,10.52
2022-12-23T21:19:14.565Z,10.52
2022-12-23T21:21:42.747Z,13.15
2022-12-23T21:24:12.150Z,12.32
2022-12-23T21:26:41.650Z,11.52
2022-12-23T21:29:11.775Z,12.05
2022-12-23T21:31:41.244Z,12.05
2022-12-23T21:34:09.863Z,9.93
2022-12-23T21:36:39.825Z,13.02
2022-12-23T21:39:11.656Z,11.93
2022-12-23T21:41:42.190Z,11.43
2022-12-23T21:44:13.465Z,10.32
2022-12-23T21:46:42.263Z,11.65
2022-12-23T21:49:10.763Z,14.57
2022-12-23T21:51:40.667Z,13.82
2022-12-23T21:54:11.333Z,17.30
2022-12-23T21:56:41.899Z,21.58
2022-12-23T21:59:13.736Z,19.25
2022-12-23T22:01:42.923Z,16.33
2022-12-23T22:04:11.883Z,10.40
2022-12-23T22:06:43.756Z,13.70
2022-12-23T22:09:13.824Z,9.82
2022-12-23T22:11:43.525Z,9.65
2022-12-23T22:14:14.379Z,10.57
2022-12-23T22:16:42.521Z,10.23
2022-12-23T22:19:12.277Z,8.20
2022-12-23T22:21:42.366Z,9.32
2022-12-23T22:24:11.160Z,8.70
2022-12-23T22:26:40.654Z,10.90
2022-12-23T22:29:11.604Z,9.60
2022-12-23T22:31:42.876Z,10.38
2022-12-23T22:34:14.083Z,9.87
2022-12-23T22:36:42.208Z,8.35
2022-12-23T22:39:19.448Z,9.15
2022-12-23T22:41:48.087Z,9.15
2022-12-23T22:44:17.692Z,6.93
2022-12-23T22:46:45.849Z,7.07
2022-12-23T22:49:15.538Z,8.00
2022-12-23T22:51:43.814Z,8.40
2022-12-23T22:54:11.988Z,8.18
2022-12-23T22:56:40.165Z,7.38
2022-12-23T22:59:08.425Z,7.72
2022-12-23T23:01:38.590Z,7.35
2022-12-23T23:04:07.899Z,9.15
2022-12-23T23:06:38.536Z,11.93
2022-12-23T23:09:07.377Z,8.82
2022-12-23T23:11:35.396Z,9.65
2022-12-23T23:14:03.904Z,8.88
2022-12-23T23:16:32.049Z,7.47
2022-12-23T23:19:02.141Z,7.82
2022-12-23T23:21:30.256Z,10.13
2022-12-23T23:23:58.543Z,8.63
2022-12-23T23:26:27.305Z,9.80
2022-12-23T23:28:55.792Z,7.45
2022-12-23T23:34:14.333Z,7.70
2022-12-23T23:36:42.946Z,7.45
2022-12-23T23:39:12.865Z,8.27
2022-12-23T23:41:41.951Z,8.05
2022-12-23T23:44:10.524Z,11.23
2022-12-23T23:46:38.605Z,10.05
2022-12-23T23:49:06.954Z,8.18
2022-12-23T23:51:36.383Z,11.55
2022-12-23T23:54:04.819Z,9.43
2022-12-23T23:56:38.296Z,11.43
2022-12-23T23:59:08.031Z,8.38
